createdAt,value
2022-08-04T00:01:06.374Z,99.90
2022-08-04T00:03:43.438Z,99.90
2022-08-04T00:06:21.731Z,99.90
2022-08-04T00:09:03.411Z,99.90
2022-08-04T00:11:32.207Z,99.90
2022-08-04T00:14:12.986Z,99.90
2022-08-04T00:16:42.519Z,99.90
2022-08-04T00:19:37.241Z,99.90
2022-08-04T00:22:07.019Z,99.90
2022-08-04T00:24:35.483Z,99.90
2022-08-04T00:27:02.781Z,99.90
2022-08-04T00:29:30.975Z,99.90
2022-08-04T00:31:58.074Z,99.90
2022-08-04T00:34:29.517Z,99.90
2022-08-04T00:36:57.834Z,99.90
2022-08-04T00:39:25.858Z,99.90
2022-08-04T00:42:21.699Z,99.90
2022-08-04T00:44:48.777Z,99.90
2022-08-04T00:47:43.089Z,99.90
2022-08-04T00:50:39.092Z,99.90
2022-08-04T00:53:28.148Z,99.90
2022-08-04T00:56:06.129Z,99.90
2022-08-04T00:58:44.014Z,99.90
2022-08-04T01:01:56.499Z,99.90
2022-08-04T01:04:49.340Z,99.90
2022-08-04T01:07:53.080Z,99.90
2022-08-04T01:10:45.755Z,99.90
2022-08-04T01:13:33.916Z,99.90
2022-08-04T01:16:05.770Z,99.90
2022-08-04T01:18:56.152Z,99.90
2022-08-04T01:21:43.176Z,99.90
2022-08-04T01:24:45.543Z,99.90
2022-08-04T01:27:44.424Z,99.90
2022-08-04T01:30:12.838Z,99.90
2022-08-04T01:32:43.930Z,99.90
2022-08-04T01:35:22.179Z,99.90
2022-08-04T01:38:24.827Z,99.90
2022-08-04T01:40:59.966Z,99.90
2022-08-04T01:43:29.711Z,99.90
2022-08-04T01:45:59.672Z,99.90
2022-08-04T01:48:28.701Z,99.90
2022-08-04T01:51:03.005Z,99.90
2022-08-04T01:53:33.197Z,99.90
2022-08-04T01:56:01.698Z,99.90
2022-08-04T01:58:32.265Z,99.90
2022-08-04T02:01:10.945Z,99.90
2022-08-04T02:04:21.079Z,99.90
2022-08-04T02:06:52.286Z,99.90
2022-08-04T02:09:54.094Z,99.90
2022-08-04T02:12:55.116Z,99.90
2022-08-04T02:15:24.667Z,99.90
2022-08-04T02:18:04.196Z,99.90
2022-08-04T02:20:38.150Z,99.90
2022-08-04T02:23:11.121Z,99.90
2022-08-04T02:25:45.520Z,99.90
2022-08-04T02:28:40.820Z,99.90
2022-08-04T02:31:34.034Z,99.90
2022-08-04T02:34:16.521Z,99.90
2022-08-04T02:36:44.551Z,99.90
2022-08-04T02:39:20.093Z,99.90
2022-08-04T02:41:48.751Z,99.90
2022-08-04T02:44:23.148Z,99.90
2022-08-04T02:46:54.657Z,99.90
2022-08-04T02:49:23.074Z,99.90
2022-08-04T02:51:57.988Z,99.90
2022-08-04T02:54:41.309Z,99.90
2022-08-04T02:57:13.851Z,99.90
2022-08-04T03:00:14.886Z,99.90
2022-08-04T03:02:56.167Z,99.90
2022-08-04T03:05:54.181Z,99.90
2022-08-04T03:08:39.712Z,99.90
2022-08-04T03:11:34.443Z,99.90
2022-08-04T03:14:31.160Z,99.90
2022-08-04T03:17:35.881Z,99.90
2022-08-04T03:20:31.768Z,99.90
2022-08-04T03:23:22.670Z,99.90
2022-08-04T03:26:20.484Z,99.90
2022-08-04T03:29:16.470Z,99.90
2022-08-04T03:32:29.155Z,99.90
2022-08-04T03:35:10.980Z,99.90
2022-08-04T03:38:05.161Z,99.90
2022-08-04T03:40:56.581Z,99.90
2022-08-04T03:43:56.941Z,99.90
2022-08-04T03:47:07.868Z,99.90
2022-08-04T03:50:05.386Z,99.90
2022-08-04T03:53:10.057Z,99.90
2022-08-04T03:55:54.694Z,99.90
2022-08-04T03:58:43.299Z,99.90
2022-08-04T04:02:01.509Z,99.90
2022-08-04T04:04:32.478Z,99.90
2022-08-04T04:07:36.194Z,99.90
2022-08-04T04:10:30.277Z,99.90
2022-08-04T04:13:15.576Z,99.90
2022-08-04T04:16:11.625Z,99.90
2022-08-04T04:19:15.769Z,99.90
2022-08-04T04:21:59.172Z,99.90
2022-08-04T04:24:35.528Z,99.90
2022-08-04T04:27:18.209Z,99.90
2022-08-04T04:29:48.447Z,99.90
2022-08-04T04:32:35.057Z,99.90
2022-08-04T04:35:35.689Z,99.90
2022-08-04T04:38:29.182Z,99.90
2022-08-04T04:41:32.092Z,99.90
2022-08-04T04:44:30.815Z,99.90
2022-08-04T04:47:10.344Z,99.90
2022-08-04T04:49:54.690Z,99.90
2022-08-04T04:52:28.648Z,99.90
2022-08-04T04:55:19.431Z,99.90
2022-08-04T04:57:54.555Z,99.90
2022-08-04T05:00:26.740Z,99.90
2022-08-04T05:03:24.083Z,99.90
2022-08-04T05:06:00.677Z,99.90
2022-08-04T05:09:07.043Z,99.90
2022-08-04T05:11:52.345Z,99.90
2022-08-04T05:14:40.957Z,99.90
2022-08-04T05:17:26.576Z,99.90
2022-08-04T05:20:03.944Z,99.90
2022-08-04T05:22:37.633Z,99.90
2022-08-04T05:25:15.325Z,99.90
2022-08-04T05:27:51.002Z,99.90
2022-08-04T05:30:28.381Z,99.90
2022-08-04T05:33:05.395Z,99.90
2022-08-04T05:35:56.285Z,99.90
2022-08-04T05:38:37.940Z,99.90
2022-08-04T05:41:05.759Z,99.90
2022-08-04T05:43:34.129Z,99.90
2022-08-04T05:46:02.442Z,99.90
2022-08-04T05:48:30.336Z,99.90
2022-08-04T05:51:00.965Z,99.90
2022-08-04T05:53:30.644Z,99.90
2022-08-04T05:56:00.419Z,99.90
2022-08-04T05:58:30.833Z,99.90
2022-08-04T06:01:00.926Z,99.90
2022-08-04T06:03:31.113Z,99.90
2022-08-04T06:06:00.931Z,99.90
2022-08-04T06:08:29.506Z,99.90
2022-08-04T06:10:58.971Z,99.90
2022-08-04T06:13:49.158Z,99.90
2022-08-04T06:16:28.982Z,99.90
2022-08-04T06:20:00.445Z,99.90
2022-08-04T06:21:52.378Z,99.90
2022-08-04T06:24:22.728Z,99.90
2022-08-04T06:26:53.949Z,99.90
2022-08-04T06:29:30.499Z,99.90
2022-08-04T06:32:28.011Z,99.90
2022-08-04T06:34:46.762Z,99.90
2022-08-04T06:37:24.226Z,99.90
2022-08-04T06:40:29.243Z,99.90
2022-08-04T06:42:53.019Z,99.90
2022-08-04T06:45:20.893Z,99.90
2022-08-04T06:47:51.896Z,99.90
2022-08-04T06:51:25.745Z,99.90
2022-08-04T06:53:06.956Z,99.90
2022-08-04T06:55:34.827Z,99.90
2022-08-04T06:58:03.760Z,99.90
2022-08-04T07:00:35.213Z,99.90
2022-08-04T07:03:04.109Z,99.90
2022-08-04T07:05:32.292Z,99.20
2022-08-04T07:08:00.678Z,99.60
2022-08-04T07:10:28.491Z,98.70
2022-08-04T07:13:00.136Z,98.40
2022-08-04T07:15:28.454Z,97.70
2022-08-04T07:18:07.074Z,96.40
2022-08-04T07:20:36.179Z,94.40
2022-08-04T07:23:05.976Z,92.50
2022-08-04T07:26:11.761Z,93.10
2022-08-04T07:28:30.056Z,92.70
2022-08-04T07:30:58.566Z,90.40
2022-08-04T07:33:29.379Z,84.60
2022-08-04T07:36:04.744Z,80.10
2022-08-04T07:38:48.709Z,80.10
2022-08-04T07:41:36.202Z,76.00
2022-08-04T07:44:04.596Z,77.10
2022-08-04T07:46:31.876Z,72.60
2022-08-04T07:49:01.137Z,70.60
2022-08-04T07:51:29.666Z,68.50
2022-08-04T07:53:57.785Z,65.60
2022-08-04T07:56:28.123Z,66.90
2022-08-04T07:58:56.923Z,67.90
2022-08-04T08:01:25.372Z,67.80
2022-08-04T08:03:56.542Z,63.20
2022-08-04T08:06:33.117Z,61.50
2022-08-04T08:09:14.739Z,61.90
2022-08-04T08:12:35.968Z,59.10
2022-08-04T08:14:35.681Z,57.50
2022-08-04T08:17:03.383Z,56.70
2022-08-04T08:19:33.802Z,57.60
2022-08-04T08:22:02.061Z,57.90
2022-08-04T08:24:30.822Z,58.20
2022-08-04T08:27:00.757Z,57.60
2022-08-04T08:29:33.994Z,57.20
2022-08-04T08:32:07.814Z,57.20
2022-08-04T08:34:37.899Z,56.00
2022-08-04T08:37:23.231Z,58.30
2022-08-04T08:40:40.293Z,55.40
2022-08-04T08:44:05.152Z,57.60
2022-08-04T08:46:13.243Z,58.00
2022-08-04T08:49:08.172Z,58.90
2022-08-04T08:51:49.043Z,57.50
2022-08-04T08:54:57.164Z,56.10
2022-08-04T08:57:33.123Z,55.60
2022-08-04T09:00:09.468Z,55.70
2022-08-04T09:03:04.391Z,54.80
2022-08-04T09:06:06.308Z,55.00
2022-08-04T09:08:41.910Z,55.20
2022-08-04T09:11:26.514Z,56.80
2022-08-04T09:14:28.395Z,55.50
2022-08-04T09:17:02.947Z,55.90
2022-08-04T09:19:39.432Z,53.50
2022-08-04T09:22:25.123Z,54.50
2022-08-04T09:25:05.385Z,55.90
2022-08-04T09:27:51.521Z,56.60
2022-08-04T09:30:41.850Z,53.20
2022-08-04T09:33:46.519Z,56.00
2022-08-04T09:36:32.790Z,57.40
2022-08-04T09:39:24.603Z,58.30
2022-08-04T09:42:16.266Z,59.30
2022-08-04T09:44:56.419Z,62.00
2022-08-04T09:47:54.629Z,65.00
2022-08-04T09:50:34.129Z,65.80
2022-08-04T09:53:35.109Z,67.10
2022-08-04T09:56:27.029Z,68.50
2022-08-04T09:59:20.097Z,68.40
2022-08-04T10:01:58.961Z,67.20
2022-08-04T10:04:31.806Z,69.10
2022-08-04T10:07:08.871Z,67.30
2022-08-04T10:09:57.823Z,68.20
2022-08-04T10:12:45.501Z,69.20
2022-08-04T10:15:36.368Z,69.30
2022-08-04T10:18:25.363Z,69.00
2022-08-04T10:21:09.105Z,70.40
2022-08-04T10:24:06.560Z,69.80
2022-08-04T10:26:57.597Z,69.50
2022-08-04T10:29:32.814Z,69.40
2022-08-04T10:32:10.312Z,69.70
2022-08-04T10:34:45.871Z,68.70
2022-08-04T10:37:59.172Z,69.80
2022-08-04T10:40:41.192Z,70.20
2022-08-04T10:43:36.236Z,70.20
2022-08-04T10:46:19.042Z,69.60
2022-08-04T10:48:56.332Z,67.90
2022-08-04T10:51:57.236Z,67.80
2022-08-04T10:54:50.595Z,68.30
2022-08-04T10:57:34.211Z,69.10
2022-08-04T11:00:06.762Z,69.10
2022-08-04T11:02:53.071Z,69.90
2022-08-04T11:05:34.843Z,69.80
2022-08-04T11:08:28.023Z,71.60
2022-08-04T11:11:19.812Z,69.20
2022-08-04T11:13:49.323Z,70.80
2022-08-04T11:16:28.078Z,70.40
2022-08-04T11:19:11.018Z,70.60
2022-08-04T11:21:51.470Z,71.80
2022-08-04T11:24:46.096Z,71.30
2022-08-04T11:27:16.310Z,70.20
2022-08-04T11:30:04.766Z,70.90
2022-08-04T11:33:11.914Z,69.40
2022-08-04T11:36:01.058Z,71.00
2022-08-04T11:38:51.802Z,71.10
2022-08-04T11:41:23.135Z,71.30
2022-08-04T11:44:03.365Z,70.40
2022-08-04T11:46:47.853Z,70.50
2022-08-04T11:49:57.259Z,70.00
2022-08-04T11:52:28.376Z,70.20
2022-08-04T11:54:58.227Z,71.30
2022-08-04T11:57:36.329Z,69.70
2022-08-04T12:00:12.745Z,70.00
2022-08-04T12:03:09.627Z,69.80
2022-08-04T12:05:46.917Z,69.80
2022-08-04T12:08:28.735Z,70.10
2022-08-04T12:11:25.087Z,69.20
2022-08-04T12:14:40.180Z,70.00
2022-08-04T12:17:08.641Z,68.80
2022-08-04T12:20:03.858Z,69.20
2022-08-04T12:22:43.989Z,70.90
2022-08-04T12:25:19.824Z,69.10
2022-08-04T12:27:51.057Z,68.40
2022-08-04T12:31:00.535Z,68.90
2022-08-04T12:34:03.424Z,69.50
2022-08-04T12:36:33.545Z,70.10
2022-08-04T12:39:20.956Z,69.70
2022-08-04T12:42:22.066Z,70.30
2022-08-04T12:44:54.419Z,70.70
2022-08-04T12:47:29.167Z,69.40
2022-08-04T12:50:02.326Z,69.80
2022-08-04T12:55:30.910Z,69.60
2022-08-04T12:57:58.783Z,71.20
2022-08-04T13:00:31.980Z,70.10
2022-08-04T13:03:10.219Z,71.20
2022-08-04T13:05:39.771Z,70.30
2022-08-04T13:08:08.193Z,69.20
2022-08-04T13:10:42.776Z,68.20
2022-08-04T13:13:17.681Z,68.80
2022-08-04T13:15:56.864Z,68.40
2022-08-04T13:18:30.179Z,68.10
2022-08-04T13:21:20.641Z,67.10
2022-08-04T13:24:21.067Z,68.70
2022-08-04T13:27:06.213Z,67.10
2022-08-04T13:30:04.399Z,68.10
2022-08-04T13:32:38.025Z,67.90
2022-08-04T13:35:12.510Z,68.20
2022-08-04T13:37:42.909Z,66.70
2022-08-04T13:40:21.965Z,66.70
2022-08-04T13:42:52.132Z,67.40
2022-08-04T13:45:23.404Z,65.80
2022-08-04T13:48:15.181Z,66.90
2022-08-04T13:50:51.593Z,65.80
2022-08-04T13:53:21.932Z,66.60
2022-08-04T13:55:50.820Z,66.50
2022-08-04T13:58:31.347Z,66.60
2022-08-04T14:01:10.209Z,67.20
2022-08-04T14:03:54.955Z,68.10
2022-08-04T14:06:53.262Z,67.30
2022-08-04T14:09:35.695Z,68.70
2022-08-04T14:12:38.972Z,67.60
2022-08-04T14:14:58.299Z,66.70
2022-08-04T14:17:30.359Z,66.90
2022-08-04T14:20:00.203Z,64.90
2022-08-04T14:22:27.205Z,65.40
2022-08-04T14:24:59.821Z,65.60
2022-08-04T14:27:29.560Z,66.00
2022-08-04T14:29:58.650Z,65.70
2022-08-04T14:32:26.555Z,66.80
2022-08-04T14:34:56.402Z,66.00
2022-08-04T14:37:24.148Z,67.00
2022-08-04T14:40:08.358Z,66.90
2022-08-04T14:42:54.620Z,65.60
2022-08-04T14:45:54.425Z,65.00
2022-08-04T14:48:23.111Z,65.50
2022-08-04T14:50:53.940Z,66.70
2022-08-04T14:53:23.124Z,66.70
2022-08-04T14:55:52.186Z,66.70
2022-08-04T14:58:35.690Z,65.80
2022-08-04T15:01:10.336Z,66.20
2022-08-04T15:03:49.831Z,65.50
2022-08-04T15:06:24.624Z,65.10
2022-08-04T15:08:53.847Z,65.80
2022-08-04T15:11:23.396Z,66.30
2022-08-04T15:13:55.109Z,65.90
2022-08-04T15:16:26.144Z,66.60
2022-08-04T15:18:54.840Z,66.20
2022-08-04T15:21:26.367Z,66.50
2022-08-04T15:23:57.847Z,66.10
2022-08-04T15:26:32.020Z,66.30
2022-08-04T15:29:21.856Z,65.70
2022-08-04T15:32:06.536Z,66.60
2022-08-04T15:34:50.029Z,66.30
2022-08-04T15:37:31.208Z,67.20
2022-08-04T15:40:32.667Z,66.40
2022-08-04T15:43:16.669Z,67.80
2022-08-04T15:46:37.419Z,67.10
2022-08-04T15:48:45.110Z,69.00
2022-08-04T15:51:15.145Z,70.30
2022-08-04T15:54:03.132Z,69.20
2022-08-04T15:57:01.391Z,71.10
2022-08-04T16:00:02.774Z,70.60
2022-08-04T16:02:32.842Z,70.70
2022-08-04T16:05:18.062Z,71.70
2022-08-04T16:07:58.735Z,72.70
2022-08-04T16:10:31.653Z,73.20
2022-08-04T16:13:15.103Z,72.80
2022-08-04T16:15:50.158Z,74.00
2022-08-04T16:18:40.852Z,74.50
2022-08-04T16:21:21.080Z,74.70
2022-08-04T16:24:21.629Z,74.70
2022-08-04T16:27:01.285Z,75.70
2022-08-04T16:29:40.781Z,74.40
2022-08-04T16:32:25.829Z,74.70
2022-08-04T16:35:20.404Z,74.50
2022-08-04T16:37:52.653Z,75.60
2022-08-04T16:40:39.164Z,76.40
2022-08-04T16:43:14.734Z,76.50
2022-08-04T16:45:59.443Z,76.70
2022-08-04T16:48:36.132Z,76.40
2022-08-04T16:51:06.550Z,76.20
2022-08-04T16:53:52.241Z,76.30
2022-08-04T16:56:35.939Z,77.30
2022-08-04T16:59:08.420Z,77.10
2022-08-04T17:01:49.562Z,77.00
2022-08-04T17:04:17.353Z,77.60
2022-08-04T17:06:46.775Z,77.50
2022-08-04T17:09:28.181Z,77.60
2022-08-04T17:11:57.041Z,77.90
2022-08-04T17:14:29.924Z,78.00
2022-08-04T17:17:01.386Z,78.50
2022-08-04T17:19:28.926Z,79.10
2022-08-04T17:22:04.215Z,79.00
2022-08-04T17:24:33.337Z,79.70
2022-08-04T17:28:09.587Z,79.60
2022-08-04T17:29:56.228Z,79.90
2022-08-04T17:32:24.034Z,80.60
2022-08-04T17:34:57.367Z,80.80
2022-08-04T17:37:39.602Z,80.60
2022-08-04T17:40:22.509Z,81.60
2022-08-04T17:44:04.441Z,82.90
2022-08-04T17:46:28.211Z,82.60
2022-08-04T17:49:09.175Z,83.10
2022-08-04T17:52:01.560Z,83.40
2022-08-04T17:54:45.121Z,83.70
2022-08-04T17:57:22.238Z,83.90
2022-08-04T17:59:58.872Z,84.30
2022-08-04T18:02:32.603Z,84.90
2022-08-04T18:05:10.248Z,85.50
2022-08-04T18:08:39.660Z,86.20
2022-08-04T18:13:42.818Z,86.40
2022-08-04T18:16:22.723Z,86.40
2022-08-04T18:19:18.984Z,87.00
2022-08-04T18:24:55.594Z,87.40
2022-08-04T18:27:29.779Z,88.60
2022-08-04T18:30:33.485Z,89.30
2022-08-04T18:33:24.481Z,89.70
2022-08-04T18:36:34.146Z,89.60
2022-08-04T18:38:55.716Z,90.40
2022-08-04T18:44:06.976Z,90.90
2022-08-04T18:46:37.042Z,91.40
2022-08-04T18:49:04.898Z,91.80
2022-08-04T18:51:32.050Z,92.10
2022-08-04T18:53:59.945Z,92.30
2022-08-04T18:56:31.716Z,92.30
2022-08-04T18:59:04.594Z,92.70
2022-08-04T19:02:13.700Z,93.20
2022-08-04T19:04:33.032Z,93.60
2022-08-04T19:07:29.019Z,93.40
2022-08-04T19:09:54.126Z,93.60
2022-08-04T19:12:28.126Z,94.10
2022-08-04T19:14:58.201Z,94.20
2022-08-04T19:17:53.548Z,94.60
2022-08-04T19:20:24.348Z,94.50
2022-08-04T19:24:11.073Z,94.90
2022-08-04T19:25:59.458Z,95.40
2022-08-04T19:28:34.266Z,95.80
2022-08-04T19:31:10.283Z,96.00
2022-08-04T19:33:58.663Z,96.40
2022-08-04T19:36:28.750Z,96.90
2022-08-04T19:38:58.149Z,97.40
2022-08-04T19:41:27.301Z,97.50
2022-08-04T19:43:54.756Z,97.90
2022-08-04T19:46:25.009Z,98.10
2022-08-04T19:48:59.436Z,98.30
2022-08-04T19:51:27.808Z,98.70
2022-08-04T19:54:03.768Z,99.30
2022-08-04T19:56:40.010Z,99.50
2022-08-04T19:59:25.908Z,99.90
2022-08-04T20:02:01.500Z,99.90
2022-08-04T20:04:31.322Z,99.90
2022-08-04T20:06:59.995Z,99.90
2022-08-04T20:09:27.775Z,99.90
2022-08-04T20:11:56.071Z,99.90
2022-08-04T20:14:32.882Z,99.90
2022-08-04T20:17:02.257Z,99.90
2022-08-04T20:19:30.274Z,99.90
2022-08-04T20:21:57.752Z,99.90
2022-08-04T20:24:38.167Z,99.90
2022-08-04T20:27:21.712Z,99.90
2022-08-04T20:29:55.476Z,99.90
2022-08-04T20:32:25.155Z,99.90
2022-08-04T20:34:55.476Z,99.90
2022-08-04T20:37:24.553Z,99.90
2022-08-04T20:39:55.922Z,99.90
2022-08-04T20:42:34.372Z,99.90
2022-08-04T20:45:01.971Z,99.90
2022-08-04T20:47:35.476Z,99.90
2022-08-04T20:50:10.129Z,99.90
2022-08-04T20:52:37.686Z,99.90
2022-08-04T20:55:05.678Z,99.90
2022-08-04T20:57:49.170Z,99.90
2022-08-04T21:00:26.426Z,99.90
2022-08-04T21:02:56.506Z,99.90
2022-08-04T21:05:31.965Z,99.90
2022-08-04T21:07:59.100Z,99.90
2022-08-04T21:10:26.438Z,99.90
2022-08-04T21:12:54.540Z,99.90
2022-08-04T21:15:25.634Z,99.90
2022-08-04T21:17:58.560Z,99.90
2022-08-04T21:20:33.181Z,99.90
2022-08-04T21:23:02.062Z,99.90
2022-08-04T21:25:29.726Z,99.90
2022-08-04T21:27:58.911Z,99.90
2022-08-04T21:30:31.046Z,99.90
2022-08-04T21:33:05.986Z,99.90
2022-08-04T21:35:39.811Z,99.90
2022-08-04T21:38:17.629Z,99.90
2022-08-04T21:41:01.460Z,99.90
2022-08-04T21:43:29.941Z,99.90
2022-08-04T21:46:09.996Z,99.90
2022-08-04T21:48:39.218Z,99.90
2022-08-04T21:51:59.261Z,99.90
2022-08-04T21:54:11.593Z,99.90
2022-08-04T21:56:42.502Z,99.90
2022-08-04T21:59:23.701Z,99.90
2022-08-04T22:01:57.502Z,99.90
2022-08-04T22:04:27.194Z,99.90
2022-08-04T22:06:53.991Z,99.90
2022-08-04T22:09:21.802Z,99.90
2022-08-04T22:11:51.319Z,99.90
2022-08-04T22:14:29.705Z,99.90
2022-08-04T22:17:04.031Z,99.90
2022-08-04T22:19:40.723Z,99.90
2022-08-04T22:22:25.327Z,99.90
2022-08-04T22:25:00.063Z,99.90
2022-08-04T22:27:47.701Z,99.90
2022-08-04T22:30:24.127Z,99.90
2022-08-04T22:32:58.544Z,99.90
2022-08-04T22:35:36.408Z,99.90
2022-08-04T22:38:24.080Z,99.90
2022-08-04T22:41:04.490Z,99.90
2022-08-04T22:43:34.705Z,99.90
2022-08-04T22:46:07.696Z,99.90
2022-08-04T22:48:39.517Z,99.90
2022-08-04T22:51:10.722Z,99.90
2022-08-04T22:53:40.545Z,99.90
2022-08-04T22:56:10.626Z,99.90
2022-08-04T22:58:45.588Z,99.90
2022-08-04T23:01:18.755Z,99.90
2022-08-04T23:03:54.938Z,99.90
2022-08-04T23:06:24.260Z,99.90
2022-08-04T23:08:52.836Z,99.90
2022-08-04T23:11:20.571Z,99.90
2022-08-04T23:13:49.042Z,99.90
2022-08-04T23:16:16.981Z,99.90
2022-08-04T23:18:48.206Z,99.90
2022-08-04T23:21:24.067Z,99.90
2022-08-04T23:24:00.806Z,99.90
2022-08-04T23:26:30.181Z,99.90
2022-08-04T23:28:57.159Z,99.90
2022-08-04T23:31:25.129Z,99.90
2022-08-04T23:34:08.348Z,99.90
2022-08-04T23:36:36.192Z,99.90
2022-08-04T23:39:05.900Z,99.90
2022-08-04T23:41:53.291Z,99.90
2022-08-04T23:44:24.261Z,99.90
2022-08-04T23:46:58.254Z,99.90
2022-08-04T23:49:25.461Z,99.90
2022-08-04T23:52:23.558Z,99.90
2022-08-04T23:54:58.296Z,99.90
2022-08-04T23:57:25.636Z,99.90
